Time;durP1;ratioP1;P1;durP2;ratioP2;P2;SDS_P1;SDS_P2;PMS_P1;PMS_P2;Temp;Humidity;BMP_temperature;BMP_pressure;BME280_temperature;BME280_humidity;BME280_pressure;Samples;Min_cycle;Max_cycle;Signal;HPM_P1;HPM_P2
2023/01/13 00:01:14;;;;;;;29.47;4.50;;;10.30;99.90;;;;;;5009809;28;20215;-95
2023/01/13 00:03:51;;;;;;;14.10;3.53;;;10.40;99.90;;;;;;5002643;28;20224;-95
2023/01/13 00:06:29;;;;;;;24.07;3.30;;;10.20;99.90;;;;;;5003516;28;20204;-94
2023/01/13 00:09:08;;;;;;;21.52;5.10;;;10.20;99.90;;;;;;4988255;28;20460;-95
2023/01/13 00:20:10;;;;;;;19.80;4.07;;;10.10;99.90;;;;;;5001613;28;20209;-94
2023/01/13 00:25:27;;;;;;;22.30;4.20;;;10.00;99.90;;;;;;5000018;28;20207;-93
2023/01/13 00:27:57;;;;;;;16.57;3.17;;;9.90;99.90;;;;;;5000371;28;20213;-95
2023/01/13 00:30:25;;;;;;;19.57;4.20;;;9.90;99.90;;;;;;5000625;28;20216;-95
2023/01/13 00:33:10;;;;;;;21.93;4.47;;;9.90;99.90;;;;;;5005273;28;20236;-96
2023/01/13 00:35:42;;;;;;;20.97;4.10;;;9.90;99.90;;;;;;5000308;28;20295;-94
2023/01/13 00:38:10;;;;;;;19.47;3.47;;;9.80;99.90;;;;;;4998253;28;20295;-94
2023/01/13 00:40:40;;;;;;;17.53;3.57;;;9.80;99.90;;;;;;5003108;28;20204;-95
2023/01/13 00:46:01;;;;;;;17.87;3.73;;;9.70;99.90;;;;;;4999713;28;20201;-94
2023/01/13 00:48:34;;;;;;;18.20;3.50;;;9.80;99.90;;;;;;5008897;28;20204;-95
2023/01/13 00:51:05;;;;;;;19.13;3.20;;;9.80;99.90;;;;;;5011991;28;20244;-94
2023/01/13 00:53:38;;;;;;;21.77;4.00;;;9.70;99.90;;;;;;5008592;28;20224;-94
2023/01/13 00:58:55;;;;;;;17.10;3.57;;;9.70;99.90;;;;;;5005625;28;20211;-94
2023/01/13 01:04:27;;;;;;;19.00;3.73;;;9.50;99.90;;;;;;5015440;28;20228;-94
2023/01/13 01:07:24;;;;;;;12.27;2.77;;;9.60;99.90;;;;;;5014327;28;20196;-93
2023/01/13 01:09:52;;;;;;;13.97;2.73;;;9.60;99.90;;;;;;5012690;28;20205;-93
2023/01/13 01:12:22;;;;;;;15.60;3.40;;;9.50;99.90;;;;;;5016070;28;20220;-93
2023/01/13 01:14:52;;;;;;;13.07;3.20;;;9.50;99.90;;;;;;5012990;28;20211;-94
2023/01/13 01:17:22;;;;;;;12.97;3.20;;;9.60;99.90;;;;;;5006603;28;20573;-93
2023/01/13 01:19:50;;;;;;;18.40;4.55;;;9.50;99.90;;;;;;5003466;28;20445;-93
2023/01/13 01:28:25;;;;;;;8.77;2.37;;;9.50;99.90;;;;;;5014882;28;20212;-94
2023/01/13 01:30:59;;;;;;;9.63;2.57;;;9.40;99.90;;;;;;4997680;28;20255;-93
2023/01/13 01:36:33;;;;;;;12.93;3.47;;;9.30;99.90;;;;;;5018448;28;20243;-93
2023/01/13 01:59:23;;;;;;;10.83;2.20;;;9.30;99.90;;;;;;4984725;28;20569;-94
2023/01/13 02:02:08;;;;;;;10.13;2.57;;;9.20;99.90;;;;;;4993016;28;20280;-94
2023/01/13 02:04:40;;;;;;;7.10;2.03;;;9.10;99.90;;;;;;4987322;28;20292;-94
2023/01/13 02:07:35;;;;;;;12.23;2.60;;;9.20;99.90;;;;;;4995748;28;20193;-94
2023/01/13 02:19:31;;;;;;;13.90;3.03;;;9.10;99.90;;;;;;4992846;28;20206;-94
2023/01/13 02:22:19;;;;;;;9.27;2.53;;;9.10;99.90;;;;;;4991945;28;20244;-93
2023/01/13 02:25:36;;;;;;;12.10;2.47;;;9.10;99.90;;;;;;4991256;28;20205;-95
2023/01/13 02:28:30;;;;;;;12.77;2.63;;;9.10;99.90;;;;;;4988744;28;20256;-94
2023/01/13 02:40:04;;;;;;;9.23;1.80;;;9.20;99.90;;;;;;4989902;28;20209;-93
2023/01/13 02:48:31;;;;;;;10.83;2.10;;;9.30;99.90;;;;;;4996653;28;20204;-93
2023/01/13 02:51:07;;;;;;;10.50;1.90;;;9.20;99.90;;;;;;4995850;28;20226;-94
2023/01/13 02:53:38;;;;;;;11.90;2.33;;;9.10;99.90;;;;;;4980989;28;20237;-93
2023/01/13 04:13:05;;;;;;;9.47;2.30;;;8.80;99.90;;;;;;4982302;28;20251;-94
2023/01/13 07:34:57;;;;;;;17.10;3.30;;;8.50;99.90;;;;;;5139558;22;20215;-92
2023/01/13 07:40:29;;;;;;;17.20;4.40;;;8.50;99.90;;;;;;5355015;22;20243;-93
2023/01/13 07:45:58;;;;;;;16.53;3.27;;;8.50;99.90;;;;;;5031606;28;20186;-93
2023/01/13 07:48:28;;;;;;;24.73;4.47;;;8.40;99.90;;;;;;5031448;28;20303;-95
2023/01/13 07:51:20;;;;;;;19.97;3.70;;;8.40;99.90;;;;;;5025631;28;20211;-93
2023/01/13 07:53:52;;;;;;;18.90;3.73;;;8.40;99.90;;;;;;5007606;28;20248;-90
2023/01/13 07:56:22;;;;;;;21.83;3.93;;;8.40;99.90;;;;;;5000132;28;20216;-94
2023/01/13 07:58:58;;;;;;;26.67;4.17;;;8.50;99.90;;;;;;5005345;28;20208;-93
2023/01/13 08:01:26;;;;;;;20.90;4.75;;;8.50;99.90;;;;;;4990905;28;20434;-94
2023/01/13 08:03:57;;;;;;;24.60;4.87;;;8.60;99.90;;;;;;5010923;28;20215;-93
2023/01/13 08:06:28;;;;;;;18.03;3.60;;;8.60;99.90;;;;;;5011755;28;20658;-93
2023/01/13 08:08:55;;;;;;;20.07;3.93;;;8.70;99.90;;;;;;4995865;28;20207;-93
2023/01/13 08:11:25;;;;;;;23.50;3.83;;;8.50;99.90;;;;;;5015620;28;20220;-92
2023/01/13 08:14:01;;;;;;;22.50;5.10;;;8.60;99.90;;;;;;5016197;28;20224;-93
2023/01/13 08:16:34;;;;;;;25.07;4.53;;;8.50;99.90;;;;;;5017145;28;20203;-91
2023/01/13 08:19:04;;;;;;;19.53;5.27;;;8.50;99.90;;;;;;5024036;28;20191;-95
2023/01/13 08:21:33;;;;;;;20.40;4.07;;;8.50;99.90;;;;;;5029634;28;20184;-95
2023/01/13 08:24:02;;;;;;;14.30;3.70;;;8.50;99.90;;;;;;5030547;28;20254;-93
2023/01/13 08:26:32;;;;;;;19.33;4.33;;;8.60;99.90;;;;;;5029093;28;20196;-93
2023/01/13 08:29:00;;;;;;;20.57;3.83;;;8.60;99.90;;;;;;5019010;28;20196;-93
2023/01/13 08:40:42;;;;;;;18.43;3.97;;;8.70;99.90;;;;;;5014935;28;20220;-93
2023/01/13 08:46:54;;;;;;;23.90;4.33;;;8.80;99.90;;;;;;5011998;28;20203;-93
2023/01/13 08:49:55;;;;;;;17.87;4.50;;;8.70;99.90;;;;;;5021068;28;20192;-93
2023/01/13 08:55:55;;;;;;;21.73;4.30;;;8.90;99.90;;;;;;5749693;22;20234;-96
2023/01/13 08:58:25;;;;;;;20.87;4.23;;;9.00;99.90;;;;;;5006337;28;20224;-93
2023/01/13 09:00:57;;;;;;;20.10;4.90;;;9.00;99.90;;;;;;5003214;28;20200;-93
2023/01/13 09:03:36;;;;;;;19.57;4.10;;;9.00;99.90;;;;;;5006315;28;20227;-93
2023/01/13 09:06:06;;;;;;;19.80;4.63;;;9.00;99.90;;;;;;5022298;28;20276;-92
2023/01/13 09:09:24;;;;;;;15.93;3.83;;;9.00;99.90;;;;;;5018615;28;20204;-92
2023/01/13 09:25:11;;;;;;;20.97;4.97;;;9.40;99.90;;;;;;5020191;28;20651;-94
2023/01/13 09:27:49;;;;;;;21.83;4.07;;;9.40;99.90;;;;;;5044312;28;20207;-93
2023/01/13 09:30:18;;;;;;;17.10;4.40;;;9.50;99.90;;;;;;5038585;28;20223;-93
2023/01/13 09:34:58;;;;;;;33.77;4.27;;;9.50;99.90;;;;;;5024036;28;20282;-93
2023/01/13 09:35:42;;;;;;;26.67;4.60;;;9.50;99.90;;;;;;5021826;28;20257;-93
2023/01/13 10:03:36;;;;;;;16.27;4.20;;;9.70;99.90;;;;;;5311540;22;20240;-94
2023/01/13 12:03:34;;;;;;;18.87;3.47;;;10.10;99.90;;;;;;5014990;28;20232;-92
2023/01/13 12:06:21;;;;;;;11.83;2.63;;;10.00;99.90;;;;;;4984482;28;20267;-93
2023/01/13 12:09:28;;;;;;;13.63;2.87;;;10.10;99.90;;;;;;5000579;28;20208;-93
2023/01/13 12:15:44;;;;;;;13.20;2.50;;;9.90;99.90;;;;;;5009489;28;20684;-93
2023/01/13 12:22:14;;;;;;;12.43;2.97;;;9.90;99.90;;;;;;5001650;28;20228;-93
2023/01/13 12:31:40;;;;;;;23.07;3.80;;;10.00;99.90;;;;;;5018450;28;20210;-94
2023/01/13 12:37:33;;;;;;;15.93;3.47;;;10.00;99.90;;;;;;4991084;28;20232;-93
2023/01/13 12:40:15;;;;;;;15.60;3.50;;;10.00;99.90;;;;;;5012607;28;20200;-92
2023/01/13 12:50:08;;;;;;;14.50;3.17;;;9.90;99.90;;;;;;5038234;28;20195;-93
2023/01/13 12:56:10;;;;;;;10.13;2.37;;;10.00;99.90;;;;;;4977046;28;20213;-94
2023/01/13 12:59:47;;;;;;;11.80;2.43;;;10.10;99.90;;;;;;4978604;28;20266;-93
2023/01/13 13:02:32;;;;;;;18.23;4.10;;;10.20;99.90;;;;;;4958500;29;20445;-93
2023/01/13 13:05:16;;;;;;;11.13;2.80;;;10.40;99.90;;;;;;4958633;29;20229;-93
2023/01/13 13:07:48;;;;;;;13.03;3.23;;;10.50;99.90;;;;;;4957693;29;20216;-92
2023/01/13 13:10:23;;;;;;;12.87;3.00;;;10.60;99.90;;;;;;4960440;29;20213;-93
2023/01/13 13:15:44;;;;;;;19.80;3.57;;;10.60;99.90;;;;;;4949836;28;20210;-92
2023/01/13 13:18:29;;;;;;;9.80;3.10;;;10.50;99.90;;;;;;4957670;29;20297;-92
2023/01/13 13:21:07;;;;;;;14.13;3.03;;;10.60;99.90;;;;;;4954873;29;20575;-94
2023/01/13 13:23:46;;;;;;;9.30;2.10;;;10.60;99.90;;;;;;4942081;29;20250;-93
2023/01/13 13:29:54;;;;;;;12.70;2.80;;;10.50;99.90;;;;;;4953319;29;20732;-93
2023/01/13 13:32:53;;;;;;;11.97;2.67;;;10.50;99.90;;;;;;4943148;29;20701;-93
2023/01/13 13:35:42;;;;;;;14.00;3.43;;;10.50;99.90;;;;;;4960775;29;20666;-92
2023/01/13 13:46:50;;;;;;;9.23;2.63;;;10.50;99.90;;;;;;4961795;29;20217;-95
2023/01/13 13:49:23;;;;;;;13.43;3.13;;;10.50;99.90;;;;;;4962387;28;20209;-93
2023/01/13 13:52:01;;;;;;;10.30;2.57;;;10.50;99.90;;;;;;4957116;29;20218;-93
2023/01/13 13:54:31;;;;;;;11.90;3.03;;;10.50;99.90;;;;;;4951147;28;20257;-95
2023/01/13 13:56:59;;;;;;;14.10;3.10;;;10.50;99.90;;;;;;4943799;29;20210;-94
2023/01/13 13:59:32;;;;;;;10.40;2.50;;;10.50;99.90;;;;;;4926715;29;20214;-94
2023/01/13 14:02:04;;;;;;;16.30;3.73;;;10.40;99.90;;;;;;4929911;29;20226;-93
2023/01/13 14:04:34;;;;;;;12.43;3.77;;;10.50;99.90;;;;;;4942857;29;20301;-95
2023/01/13 14:07:14;;;;;;;12.60;2.70;;;10.50;99.90;;;;;;4945947;29;20242;-93
2023/01/13 14:09:44;;;;;;;14.67;3.03;;;10.50;99.90;;;;;;4943239;29;20218;-95
2023/01/13 14:12:24;;;;;;;13.17;3.10;;;10.50;99.90;;;;;;4948528;29;20265;-93
2023/01/13 14:15:42;;;;;;;9.37;2.23;;;10.40;99.90;;;;;;4950819;29;20206;-93
2023/01/13 14:18:19;;;;;;;15.23;2.50;;;10.40;99.90;;;;;;4946523;29;20245;-92
2023/01/13 14:23:37;;;;;;;8.67;2.10;;;10.40;99.90;;;;;;4952935;28;20226;-90
2023/01/13 14:26:11;;;;;;;17.40;4.30;;;10.30;99.90;;;;;;4952120;29;20223;-92
2023/01/13 14:34:13;;;;;;;14.90;2.77;;;10.20;99.90;;;;;;4944285;29;20233;-92
2023/01/13 14:36:41;;;;;;;6.97;2.40;;;10.10;99.90;;;;;;4944444;29;20266;-93
2023/01/13 14:39:33;;;;;;;12.63;2.60;;;10.10;99.90;;;;;;4947533;29;20211;-94
2023/01/13 14:42:08;;;;;;;9.27;2.30;;;10.20;99.90;;;;;;4944370;29;20267;-93
2023/01/13 14:44:36;;;;;;;17.03;2.67;;;10.10;99.90;;;;;;4942508;29;20194;-92
2023/01/13 14:47:21;;;;;;;14.80;2.93;;;10.40;99.90;;;;;;4946013;29;20293;-92
2023/01/13 14:50:02;;;;;;;9.30;2.40;;;10.30;99.90;;;;;;4944110;29;20267;-91
2023/01/13 14:52:33;;;;;;;10.80;2.27;;;10.20;99.90;;;;;;4942644;29;20902;-92
2023/01/13 14:55:40;;;;;;;7.93;2.23;;;10.20;99.90;;;;;;4958537;29;20218;-92
2023/01/13 14:58:31;;;;;;;10.80;2.40;;;10.20;99.90;;;;;;4915218;29;20244;-92
2023/01/13 15:01:38;;;;;;;8.40;2.37;;;10.20;99.90;;;;;;4958583;28;20233;-93
2023/01/13 15:07:07;;;;;;;15.53;3.13;;;10.20;99.90;;;;;;4963400;28;20324;-94
2023/01/13 15:09:39;;;;;;;16.13;2.87;;;10.20;99.90;;;;;;4960936;28;20205;-93
2023/01/13 15:12:35;;;;;;;16.33;3.33;;;10.10;99.90;;;;;;4961805;28;20221;-93
2023/01/13 15:15:21;;;;;;;11.77;2.90;;;10.20;99.90;;;;;;4961173;28;20453;-92
2023/01/13 15:17:49;;;;;;;14.87;2.50;;;10.20;99.90;;;;;;4962706;28;20206;-92
2023/01/13 15:20:33;;;;;;;15.10;2.43;;;10.20;99.90;;;;;;4962753;28;20632;-94
2023/01/13 15:23:17;;;;;;;13.77;3.00;;;10.10;99.90;;;;;;4965092;28;20225;-92
2023/01/13 15:25:47;;;;;;;15.03;3.23;;;10.20;99.90;;;;;;4960138;29;20210;-95
2023/01/13 15:28:25;;;;;;;14.13;2.90;;;10.30;99.90;;;;;;4961959;29;20236;-94
2023/01/13 15:30:53;;;;;;;11.90;2.80;;;10.10;99.90;;;;;;4961036;29;20315;-94
2023/01/13 15:33:23;;;;;;;12.23;3.40;;;10.10;99.90;;;;;;4959952;29;20305;-94
2023/01/13 15:38:42;;;;;;;11.70;2.67;;;10.00;99.90;;;;;;4962700;29;20216;-93
2023/01/13 15:41:13;;;;;;;14.53;2.93;;;9.90;99.90;;;;;;4962746;28;20209;-93
2023/01/13 15:47:16;;;;;;;15.27;3.03;;;10.00;99.90;;;;;;4963383;29;20208;-93
2023/01/13 15:49:48;;;;;;;13.73;3.33;;;9.90;99.90;;;;;;4949690;29;20218;-94
2023/01/13 15:55:02;;;;;;;12.03;2.57;;;9.90;99.90;;;;;;4965427;28;20213;-92
2023/01/13 16:00:26;;;;;;;9.83;2.53;;;9.80;99.90;;;;;;4958145;29;20208;-94
2023/01/13 16:03:10;;;;;;;18.47;2.90;;;9.80;99.90;;;;;;4961859;28;20226;-92
2023/01/13 16:05:39;;;;;;;13.13;3.00;;;9.70;99.90;;;;;;4962191;29;20265;-93
2023/01/13 16:08:14;;;;;;;10.17;2.40;;;9.70;99.90;;;;;;4966094;29;20216;-93
2023/01/13 16:10:54;;;;;;;14.75;3.60;;;9.80;99.90;;;;;;4971635;28;20445;-95
2023/01/13 16:13:22;;;;;;;14.60;3.73;;;9.80;99.90;;;;;;4961605;29;20288;-95
2023/01/13 16:18:33;;;;;;;14.17;3.07;;;9.70;99.90;;;;;;4961262;29;20288;-93
2023/01/13 16:21:03;;;;;;;13.80;2.77;;;9.60;99.90;;;;;;4944146;29;20289;-92
2023/01/13 16:23:34;;;;;;;12.40;2.63;;;9.60;99.90;;;;;;4958745;29;20302;-92
2023/01/13 16:26:05;;;;;;;13.87;3.07;;;9.60;99.90;;;;;;4959928;29;20550;-93
2023/01/13 16:28:34;;;;;;;10.93;3.13;;;9.50;99.90;;;;;;4964823;29;20210;-93
2023/01/13 16:31:19;;;;;;;18.43;3.63;;;9.60;99.90;;;;;;4949352;28;20211;-92
2023/01/13 16:33:48;;;;;;;14.90;3.53;;;9.60;99.90;;;;;;4965866;28;20230;-95
2023/01/13 16:36:21;;;;;;;12.27;2.53;;;9.60;99.90;;;;;;4979353;28;20232;-93
2023/01/13 16:38:52;;;;;;;15.07;3.20;;;9.50;99.90;;;;;;4974774;28;20187;-93
2023/01/13 16:41:19;;;;;;;14.13;3.53;;;9.50;99.90;;;;;;4975061;28;20190;-93
2023/01/13 16:43:46;;;;;;;16.80;3.47;;;9.40;99.90;;;;;;4977429;28;20282;-92
2023/01/13 16:46:25;;;;;;;18.90;3.60;;;9.40;99.90;;;;;;4963118;29;20202;-92
2023/01/13 16:49:02;;;;;;;10.07;3.43;;;9.40;99.90;;;;;;4954429;29;20205;-94
2023/01/13 16:51:36;;;;;;;14.80;3.13;;;9.40;99.90;;;;;;4958442;29;20335;-95
2023/01/13 16:59:38;;;;;;;19.40;4.87;;;9.30;99.90;;;;;;4952366;29;20216;-96
2023/01/13 17:02:13;;;;;;;16.90;3.70;;;9.30;99.90;;;;;;4961362;28;20583;-93
2023/01/13 17:04:42;;;;;;;11.80;3.73;;;9.30;99.90;;;;;;4962231;29;20213;-93
2023/01/13 17:07:15;;;;;;;16.27;3.40;;;9.30;99.90;;;;;;4953910;29;20237;-94
2023/01/13 17:09:42;;;;;;;19.90;4.37;;;9.20;99.90;;;;;;4965243;29;20218;-92
2023/01/13 17:12:10;;;;;;;16.67;4.37;;;9.20;99.90;;;;;;4974283;28;20202;-94
2023/01/13 17:14:39;;;;;;;15.90;4.07;;;9.20;99.90;;;;;;4974934;29;20237;-92
2023/01/13 17:17:19;;;;;;;16.77;4.53;;;9.20;99.90;;;;;;4961755;28;20616;-94
2023/01/13 17:19:52;;;;;;;24.73;4.73;;;9.20;99.90;;;;;;4966174;29;20214;-93
2023/01/13 17:22:20;;;;;;;15.80;3.50;;;9.20;99.90;;;;;;4958623;29;20245;-93
2023/01/13 17:24:56;;;;;;;19.93;4.27;;;9.10;99.90;;;;;;4956238;29;20213;-92
2023/01/13 17:27:28;;;;;;;20.23;4.07;;;9.20;99.90;;;;;;4957125;29;20202;-94
2023/01/13 17:30:01;;;;;;;19.63;4.27;;;9.20;99.90;;;;;;4961784;29;20226;-91
2023/01/13 17:38:49;;;;;;;13.83;3.93;;;9.20;99.90;;;;;;4964548;28;20202;-92
2023/01/13 17:41:16;;;;;;;15.23;4.17;;;9.30;99.90;;;;;;4962549;28;20214;-93
2023/01/13 17:43:46;;;;;;;16.23;4.53;;;9.30;99.90;;;;;;4961964;29;20301;-95
2023/01/13 17:46:17;;;;;;;18.67;4.40;;;9.20;99.90;;;;;;4956413;28;20202;-92
2023/01/13 17:48:51;;;;;;;17.07;4.87;;;9.30;99.90;;;;;;4951294;28;20207;-94
2023/01/13 17:51:21;;;;;;;21.10;4.90;;;9.30;99.90;;;;;;4962927;29;20208;-93
2023/01/13 17:53:51;;;;;;;19.93;4.40;;;9.40;99.90;;;;;;4965952;29;20697;-92
2023/01/13 17:56:24;;;;;;;19.37;3.97;;;9.30;99.90;;;;;;4964472;29;20609;-93
2023/01/13 17:58:54;;;;;;;25.17;4.47;;;9.30;99.90;;;;;;4968451;29;20209;-95
2023/01/13 18:01:32;;;;;;;22.27;5.00;;;9.30;99.90;;;;;;4967367;29;20242;-95
2023/01/13 18:04:09;;;;;;;17.63;4.03;;;9.20;99.90;;;;;;4968057;29;20286;-93
2023/01/13 18:06:36;;;;;;;22.30;3.97;;;9.20;99.90;;;;;;4958556;29;20306;-92
2023/01/13 18:09:09;;;;;;;20.87;3.87;;;9.30;99.90;;;;;;4961596;29;20214;-92
2023/01/13 18:11:36;;;;;;;26.10;4.90;;;9.20;99.90;;;;;;4959461;29;20202;-95
2023/01/13 18:14:04;;;;;;;21.77;4.67;;;9.30;99.90;;;;;;4965768;29;20257;-94
2023/01/13 18:16:33;;;;;;;26.07;4.57;;;9.20;99.90;;;;;;4970369;28;20209;-93
2023/01/13 18:27:31;;;;;;;20.83;4.67;;;9.20;99.90;;;;;;4966215;29;20209;-92
2023/01/13 18:30:03;;;;;;;20.70;4.73;;;9.10;99.90;;;;;;4965943;28;20237;-94
2023/01/13 18:32:33;;;;;;;27.47;5.67;;;9.10;99.90;;;;;;4963855;29;20250;-93
2023/01/13 18:35:03;;;;;;;24.57;4.93;;;9.10;99.90;;;;;;4951868;29;20309;-94
2023/01/13 18:37:37;;;;;;;24.83;5.07;;;9.10;99.90;;;;;;4963268;28;20209;-92
2023/01/13 18:40:08;;;;;;;28.03;5.47;;;9.10;99.90;;;;;;4961042;28;20206;-93
2023/01/13 18:42:50;;;;;;;28.80;5.23;;;9.10;99.90;;;;;;4963131;29;20245;-93
2023/01/13 18:45:19;;;;;;;26.33;5.63;;;9.10;99.90;;;;;;4945860;29;20669;-93
2023/01/13 18:47:50;;;;;;;25.40;6.23;;;9.10;99.90;;;;;;4964393;29;20206;-93
2023/01/13 18:53:00;;;;;;;21.30;5.00;;;9.00;99.90;;;;;;4960396;29;20313;-93
2023/01/13 18:55:47;;;;;;;26.57;5.03;;;9.00;99.90;;;;;;4949775;29;20689;-93
2023/01/13 18:58:15;;;;;;;30.97;5.80;;;9.00;99.90;;;;;;4950458;29;20569;-93
2023/01/13 19:00:43;;;;;;;26.98;6.65;;;9.10;99.90;;;;;;4960019;29;20441;-92
2023/01/13 19:03:12;;;;;;;21.23;5.43;;;9.10;99.90;;;;;;4961781;29;20230;-92
2023/01/13 19:05:39;;;;;;;28.93;5.70;;;9.10;99.90;;;;;;4961494;28;20232;-94
2023/01/13 19:08:08;;;;;;;28.90;5.63;;;9.20;99.90;;;;;;4960501;29;20693;-92
2023/01/13 19:10:36;;;;;;;29.20;5.53;;;9.10;99.90;;;;;;4962264;28;20222;-94
2023/01/13 19:13:09;;;;;;;32.23;5.70;;;9.20;99.90;;;;;;4966411;29;20232;-93
2023/01/13 19:15:37;;;;;;;23.67;5.43;;;9.20;99.90;;;;;;4967995;29;20217;-94
2023/01/13 19:18:04;;;;;;;28.17;6.53;;;9.10;99.90;;;;;;4965486;28;20233;-94
2023/01/13 19:20:31;;;;;;;29.33;6.20;;;9.10;99.90;;;;;;4965991;29;20209;-93
2023/01/13 19:22:59;;;;;;;27.03;5.77;;;9.10;99.90;;;;;;4960528;29;20653;-93
2023/01/13 19:25:26;;;;;;;27.73;6.07;;;9.10;99.90;;;;;;4961257;28;20233;-92
2023/01/13 19:27:54;;;;;;;28.40;6.00;;;9.10;99.90;;;;;;4946308;29;20291;-93
2023/01/13 19:30:24;;;;;;;29.10;6.90;;;9.10;99.90;;;;;;4966327;29;20235;-93
2023/01/13 19:32:52;;;;;;;21.30;4.53;;;9.20;99.90;;;;;;4958852;28;20241;-93
2023/01/13 19:35:20;;;;;;;31.10;6.03;;;9.20;99.90;;;;;;4959864;29;20230;-94
2023/01/13 19:37:49;;;;;;;29.07;5.47;;;9.20;99.90;;;;;;4959164;29;20210;-92
2023/01/13 19:40:16;;;;;;;29.83;7.13;;;9.20;99.90;;;;;;4961951;28;20202;-93
2023/01/13 19:45:33;;;;;;;22.83;5.57;;;9.10;99.90;;;;;;4945466;29;20197;-94
2023/01/13 19:48:03;;;;;;;22.50;4.83;;;9.10;99.90;;;;;;4960237;29;20712;-93
2023/01/13 19:50:30;;;;;;;30.50;5.97;;;9.10;99.90;;;;;;4958976;29;20234;-93
2023/01/13 19:52:59;;;;;;;26.80;5.57;;;8.90;99.90;;;;;;4955268;29;20249;-92
2023/01/13 19:55:26;;;;;;;30.63;6.10;;;9.00;99.90;;;;;;4960767;29;20275;-94
2023/01/13 19:57:53;;;;;;;31.48;7.05;;;9.00;99.90;;;;;;4959728;29;20441;-93
2023/01/13 20:00:23;;;;;;;22.20;4.83;;;9.00;99.90;;;;;;4960057;29;20252;-92
2023/01/13 20:02:52;;;;;;;23.97;4.73;;;9.00;99.90;;;;;;4959444;29;20268;-91
2023/01/13 20:05:24;;;;;;;25.63;4.73;;;9.00;99.90;;;;;;4957886;29;20210;-91
2023/01/13 20:07:52;;;;;;;18.37;4.53;;;8.90;99.90;;;;;;4957952;29;20575;-94
2023/01/13 20:10:22;;;;;;;32.97;5.97;;;8.90;99.90;;;;;;4959665;28;20210;-94
2023/01/13 20:12:51;;;;;;;25.93;5.00;;;8.90;99.90;;;;;;4958114;28;20225;-92
2023/01/13 20:15:24;;;;;;;23.60;4.97;;;8.90;99.90;;;;;;4958303;29;20257;-93
2023/01/13 20:17:52;;;;;;;23.43;4.80;;;8.90;99.90;;;;;;4958296;29;20202;-93
2023/01/13 20:20:20;;;;;;;29.20;5.90;;;8.90;99.90;;;;;;4957343;29;20202;-94
2023/01/13 20:22:49;;;;;;;28.47;6.40;;;8.80;99.90;;;;;;4957609;29;20234;-93
2023/01/13 20:25:17;;;;;;;25.27;5.60;;;8.80;99.90;;;;;;4957217;29;20649;-93
2023/01/13 20:27:44;;;;;;;32.20;7.35;;;8.80;99.90;;;;;;4955633;29;20453;-92
2023/01/13 20:30:13;;;;;;;29.43;6.20;;;8.90;99.90;;;;;;4957107;29;20620;-94
2023/01/13 20:32:40;;;;;;;21.87;5.10;;;8.90;99.90;;;;;;4958012;29;20276;-94
2023/01/13 20:35:10;;;;;;;24.80;5.23;;;8.80;99.90;;;;;;4957067;29;20239;-93
2023/01/13 20:37:39;;;;;;;24.30;5.57;;;8.80;99.90;;;;;;4957853;29;20221;-95
2023/01/13 20:40:08;;;;;;;24.20;5.20;;;8.90;99.90;;;;;;4958028;28;20212;-94
2023/01/13 20:42:43;;;;;;;23.87;5.40;;;8.70;99.90;;;;;;4958990;29;20312;-93
2023/01/13 20:45:12;;;;;;;29.67;5.83;;;8.70;99.90;;;;;;4957115;29;20223;-92
2023/01/13 20:47:39;;;;;;;28.40;5.70;;;8.70;99.90;;;;;;4957905;29;20237;-94
2023/01/13 20:50:07;;;;;;;25.43;5.73;;;8.70;99.90;;;;;;4957537;29;20209;-93
2023/01/13 20:52:36;;;;;;;28.47;5.03;;;8.70;99.90;;;;;;4957004;29;20233;-94
2023/01/13 20:55:04;;;;;;;29.23;6.10;;;8.60;99.90;;;;;;4938030;29;20655;-93
2023/01/13 20:57:32;;;;;;;26.90;5.43;;;8.60;99.90;;;;;;4954722;29;20282;-91
2023/01/13 20:59:59;;;;;;;22.60;4.70;;;8.60;99.90;;;;;;4957069;29;20216;-92
2023/01/13 21:02:26;;;;;;;25.83;6.07;;;8.50;99.90;;;;;;4956082;28;20216;-92
2023/01/13 21:04:53;;;;;;;30.33;5.63;;;8.50;99.90;;;;;;4947557;29;20614;-93
2023/01/13 21:07:20;;;;;;;25.00;5.97;;;8.50;99.90;;;;;;4946453;29;20206;-93
2023/01/13 21:09:51;;;;;;;21.13;4.70;;;8.50;99.90;;;;;;4955541;28;20202;-93
2023/01/13 21:20:38;;;;;;;22.00;5.47;;;8.40;99.90;;;;;;4959567;29;20201;-94
2023/01/13 21:23:06;;;;;;;25.40;5.50;;;8.50;99.90;;;;;;4958236;28;20222;-92
2023/01/13 21:25:35;;;;;;;21.23;5.20;;;8.50;99.90;;;;;;4959196;29;20208;-93
2023/01/13 21:28:10;;;;;;;28.17;5.67;;;8.50;99.90;;;;;;4958336;28;20218;-93
2023/01/13 21:30:41;;;;;;;26.60;6.93;;;8.40;99.90;;;;;;4958699;29;20205;-92
2023/01/13 21:48:19;;;;;;;23.73;4.93;;;8.40;99.90;;;;;;5015802;28;20215;-82
2023/01/13 21:51:11;;;;;;;22.60;4.87;;;8.40;99.90;;;;;;5000412;28;20225;-84
2023/01/13 21:53:45;;;;;;;25.23;4.83;;;8.40;99.90;;;;;;5014827;28;20187;-82
2023/01/13 21:56:47;;;;;;;26.53;4.63;;;8.40;99.90;;;;;;5002541;28;20209;-82
2023/01/13 21:59:33;;;;;;;20.83;5.27;;;8.30;99.90;;;;;;4962113;28;20217;-81
2023/01/13 22:11:16;;;;;;;21.47;4.47;;;8.30;99.90;;;;;;5036964;22;20182;-93
2023/01/13 22:16:30;;;;;;;25.80;5.33;;;8.40;99.90;;;;;;4970387;29;20241;-94
2023/01/13 22:18:58;;;;;;;23.43;5.00;;;8.20;99.90;;;;;;4967351;29;20228;-93
2023/01/13 22:21:27;;;;;;;21.03;5.23;;;8.20;99.90;;;;;;4970550;29;20229;-94
2023/01/13 22:23:54;;;;;;;32.13;7.70;;;8.30;99.90;;;;;;4965589;28;20444;-93
2023/01/13 22:26:27;;;;;;;27.07;6.27;;;8.30;99.90;;;;;;4964406;29;20657;-94
2023/01/13 22:28:54;;;;;;;23.60;5.10;;;8.30;99.90;;;;;;4965940;29;20232;-94
2023/01/13 22:31:23;;;;;;;25.50;4.70;;;8.30;99.90;;;;;;4964774;29;20563;-94
2023/01/13 22:33:54;;;;;;;18.97;4.90;;;8.30;99.90;;;;;;4965632;28;20321;-94
2023/01/13 22:36:22;;;;;;;25.27;5.20;;;8.20;99.90;;;;;;4969881;29;20229;-94
2023/01/13 22:38:53;;;;;;;30.27;4.63;;;8.20;99.90;;;;;;4955664;29;20214;-94
2023/01/13 22:41:20;;;;;;;22.20;5.03;;;8.30;99.90;;;;;;4962723;29;20257;-94
2023/01/13 22:43:47;;;;;;;34.70;6.17;;;8.00;99.90;;;;;;4975536;28;20222;-94
2023/01/13 22:46:15;;;;;;;23.03;5.50;;;8.00;99.90;;;;;;4983735;28;20225;-94
2023/01/13 22:48:44;;;;;;;22.73;5.43;;;7.90;99.90;;;;;;4971435;29;20217;-92
2023/01/13 22:51:17;;;;;;;25.67;5.30;;;7.80;99.90;;;;;;4970784;28;20208;-94
2023/01/13 22:53:45;;;;;;;29.93;6.17;;;7.80;99.90;;;;;;4970910;28;20245;-94
2023/01/13 22:56:17;;;;;;;26.27;5.70;;;7.90;99.90;;;;;;4962620;29;20716;-92
2023/01/13 22:58:45;;;;;;;27.07;6.10;;;7.80;99.90;;;;;;4960504;28;20296;-93
2023/01/13 23:01:14;;;;;;;31.43;6.23;;;7.90;99.90;;;;;;4959401;29;20293;-92
2023/01/13 23:03:44;;;;;;;30.60;5.47;;;7.80;99.90;;;;;;4958983;28;20229;-94
2023/01/13 23:06:19;;;;;;;30.43;5.47;;;7.70;99.90;;;;;;4959517;29;20202;-94
2023/01/13 23:08:54;;;;;;;26.23;5.30;;;7.70;99.90;;;;;;4961175;29;20252;-93
2023/01/13 23:11:28;;;;;;;30.23;5.37;;;7.60;99.90;;;;;;4960554;29;20201;-93
2023/01/13 23:14:00;;;;;;;28.97;5.83;;;7.50;99.90;;;;;;4961559;28;20229;-91
2023/01/13 23:16:29;;;;;;;31.37;5.93;;;7.50;99.90;;;;;;4961662;29;20210;-94
2023/01/13 23:18:59;;;;;;;33.00;5.47;;;7.60;99.90;;;;;;4961995;29;20257;-93
2023/01/13 23:21:29;;;;;;;30.80;5.30;;;7.50;99.90;;;;;;4963324;29;20209;-93
2023/01/13 23:23:59;;;;;;;25.63;5.00;;;7.50;99.90;;;;;;4963463;28;20253;-93
2023/01/13 23:26:29;;;;;;;27.50;5.70;;;7.50;99.90;;;;;;4967426;29;20216;-93
2023/01/13 23:29:04;;;;;;;27.97;5.80;;;7.40;99.90;;;;;;4978322;29;20301;-92
2023/01/13 23:31:32;;;;;;;37.17;6.10;;;7.40;99.90;;;;;;4978533;28;20193;-94
2023/01/13 23:34:00;;;;;;;28.30;5.50;;;7.40;99.90;;;;;;4978098;28;20237;-91
2023/01/13 23:36:29;;;;;;;28.50;5.27;;;7.40;99.90;;;;;;4982078;28;20278;-93
2023/01/13 23:39:02;;;;;;;40.13;8.00;;;7.40;99.90;;;;;;4966668;28;20214;-95
2023/01/13 23:41:31;;;;;;;32.07;6.37;;;7.20;99.90;;;;;;4961466;29;20269;-93
2023/01/13 23:44:11;;;;;;;34.10;6.70;;;7.20;99.90;;;;;;4962812;28;20281;-95
2023/01/13 23:46:45;;;;;;;27.73;6.30;;;7.10;99.90;;;;;;4963106;29;20217;-93
2023/01/13 23:49:18;;;;;;;28.50;5.80;;;7.10;99.90;;;;;;4963074;29;20201;-92
2023/01/13 23:51:49;;;;;;;37.10;6.73;;;7.20;99.90;;;;;;4962289;29;20228;-93
2023/01/13 23:54:18;;;;;;;31.00;6.27;;;7.10;99.90;;;;;;4963210;29;20229;-93
2023/01/13 23:56:46;;;;;;;30.07;5.83;;;7.10;99.90;;;;;;4962675;29;20244;-93
2023/01/13 23:59:14;;;;;;;26.37;5.77;;;7.10;99.90;;;;;;4963384;29;20653;-93
